sensor_id;sensor_type;location;lat;lon;timestamp;temperature;humidity
34877;DHT22;21086;44.780;17.194;2023-11-21T00:01:16;10.30;99.90
34877;DHT22;21086;44.780;17.194;2023-11-21T00:03:44;10.40;99.90
34877;DHT22;21086;44.780;17.194;2023-11-21T00:06:11;10.30;99.90
34877;DHT22;21086;44.780;17.194;2023-11-21T00:08:38;10.30;99.90
34877;DHT22;21086;44.780;17.194;2023-11-21T00:11:05;10.30;99.90
34877;DHT22;21086;44.780;17.194;2023-11-21T00:13:32;10.30;99.90
34877;DHT22;21086;44.780;17.194;2023-11-21T00:15:59;10.40;99.90
34877;DHT22;21086;44.780;17.194;2023-11-21T00:18:26;10.30;99.90
34877;DHT22;21086;44.780;17.194;2023-11-21T00:20:53;10.30;99.90
34877;DHT22;21086;44.780;17.194;2023-11-21T00:23:20;10.30;99.90
34877;DHT22;21086;44.780;17.194;2023-11-21T00:25:47;10.20;99.90
34877;DHT22;21086;44.780;17.194;2023-11-21T00:28:14;10.30;99.90
34877;DHT22;21086;44.780;17.194;2023-11-21T00:30:41;10.30;99.90
34877;DHT22;21086;44.780;17.194;2023-11-21T00:33:08;10.30;99.90
34877;DHT22;21086;44.780;17.194;2023-11-21T00:35:36;10.20;99.90
34877;DHT22;21086;44.780;17.194;2023-11-21T00:38:03;10.20;99.90
34877;DHT22;21086;44.780;17.194;2023-11-21T00:40:30;10.10;99.90
34877;DHT22;21086;44.780;17.194;2023-11-21T00:42:58;10.10;99.90
34877;DHT22;21086;44.780;17.194;2023-11-21T00:45:25;10.10;99.90
34877;DHT22;21086;44.780;17.194;2023-11-21T00:47:52;10.10;99.90
34877;DHT22;21086;44.780;17.194;2023-11-21T00:50:19;10.10;99.90
34877;DHT22;21086;44.780;17.194;2023-11-21T00:52:46;9.80;99.90
34877;DHT22;21086;44.780;17.194;2023-11-21T00:55:13;9.60;99.90
34877;DHT22;21086;44.780;17.194;2023-11-21T00:57:40;9.70;99.90
34877;DHT22;21086;44.780;17.194;2023-11-21T01:00:07;9.90;99.90
34877;DHT22;21086;44.780;17.194;2023-11-21T01:02:40;9.90;99.90
34877;DHT22;21086;44.780;17.194;2023-11-21T01:05:07;10.00;99.90
34877;DHT22;21086;44.780;17.194;2023-11-21T01:07:34;10.10;99.90
34877;DHT22;21086;44.780;17.194;2023-11-21T01:10:04;10.20;99.90
34877;DHT22;21086;44.780;17.194;2023-11-21T01:12:35;10.10;99.90
34877;DHT22;21086;44.780;17.194;2023-11-21T01:15:05;10.10;99.90
34877;DHT22;21086;44.780;17.194;2023-11-21T01:17:36;10.20;99.90
34877;DHT22;21086;44.780;17.194;2023-11-21T01:20:03;10.20;99.90
34877;DHT22;21086;44.780;17.194;2023-11-21T01:22:38;10.20;99.90
34877;DHT22;21086;44.780;17.194;2023-11-21T01:25:06;10.20;99.90
34877;DHT22;21086;44.780;17.194;2023-11-21T01:27:34;10.30;99.90
34877;DHT22;21086;44.780;17.194;2023-11-21T01:30:02;10.30;99.90
34877;DHT22;21086;44.780;17.194;2023-11-21T01:32:30;10.30;99.90
34877;DHT22;21086;44.780;17.194;2023-11-21T01:34:57;10.40;99.90
34877;DHT22;21086;44.780;17.194;2023-11-21T01:37:24;10.30;99.90
34877;DHT22;21086;44.780;17.194;2023-11-21T01:39:54;10.30;99.90
34877;DHT22;21086;44.780;17.194;2023-11-21T01:42:22;10.30;99.90
34877;DHT22;21086;44.780;17.194;2023-11-21T01:44:49;10.30;99.90
34877;DHT22;21086;44.780;17.194;2023-11-21T01:47:17;10.30;99.90
34877;DHT22;21086;44.780;17.194;2023-11-21T01:49:45;10.10;99.90
34877;DHT22;21086;44.780;17.194;2023-11-21T01:52:13;10.10;99.90
34877;DHT22;21086;44.780;17.194;2023-11-21T01:54:41;10.10;99.90
34877;DHT22;21086;44.780;17.194;2023-11-21T01:57:09;10.20;99.90
34877;DHT22;21086;44.780;17.194;2023-11-21T01:59:37;10.10;99.90
34877;DHT22;21086;44.780;17.194;2023-11-21T02:02:05;10.10;99.90
34877;DHT22;21086;44.780;17.194;2023-11-21T02:04:33;10.10;99.90
34877;DHT22;21086;44.780;17.194;2023-11-21T02:07:00;10.20;99.90
34877;DHT22;21086;44.780;17.194;2023-11-21T02:09:28;10.20;99.90
34877;DHT22;21086;44.780;17.194;2023-11-21T02:12:00;10.20;99.90
34877;DHT22;21086;44.780;17.194;2023-11-21T02:14:27;10.20;99.90
34877;DHT22;21086;44.780;17.194;2023-11-21T02:16:55;10.20;99.90
34877;DHT22;21086;44.780;17.194;2023-11-21T02:19:24;10.20;99.90
34877;DHT22;21086;44.780;17.194;2023-11-21T02:21:54;10.20;99.90
34877;DHT22;21086;44.780;17.194;2023-11-21T02:24:22;10.20;99.90
34877;DHT22;21086;44.780;17.194;2023-11-21T02:26:50;10.20;99.90
34877;DHT22;21086;44.780;17.194;2023-11-21T02:29:20;10.20;99.90
34877;DHT22;21086;44.780;17.194;2023-11-21T02:31:55;10.20;99.90
34877;DHT22;21086;44.780;17.194;2023-11-21T02:34:23;10.20;99.90
34877;DHT22;21086;44.780;17.194;2023-11-21T02:36:52;10.10;99.90
34877;DHT22;21086;44.780;17.194;2023-11-21T02:39:20;10.20;99.90
34877;DHT22;21086;44.780;17.194;2023-11-21T02:41:49;10.20;99.90
34877;DHT22;21086;44.780;17.194;2023-11-21T02:44:16;10.20;99.90
34877;DHT22;21086;44.780;17.194;2023-11-21T02:46:43;10.20;99.90
34877;DHT22;21086;44.780;17.194;2023-11-21T02:49:10;9.90;99.90
34877;DHT22;21086;44.780;17.194;2023-11-21T02:51:37;10.10;99.90
34877;DHT22;21086;44.780;17.194;2023-11-21T02:54:07;10.10;99.90
34877;DHT22;21086;44.780;17.194;2023-11-21T02:56:35;10.20;99.90
34877;DHT22;21086;44.780;17.194;2023-11-21T02:59:02;10.30;99.90
34877;DHT22;21086;44.780;17.194;2023-11-21T03:01:29;10.20;99.90
34877;DHT22;21086;44.780;17.194;2023-11-21T03:03:56;10.20;99.90
34877;DHT22;21086;44.780;17.194;2023-11-21T03:06:23;10.20;99.90
34877;DHT22;21086;44.780;17.194;2023-11-21T03:08:50;10.20;99.90
34877;DHT22;21086;44.780;17.194;2023-11-21T03:11:17;10.30;99.90
34877;DHT22;21086;44.780;17.194;2023-11-21T03:13:44;10.30;99.90
34877;DHT22;21086;44.780;17.194;2023-11-21T03:16:12;10.30;99.90
34877;DHT22;21086;44.780;17.194;2023-11-21T03:18:40;10.30;99.90
34877;DHT22;21086;44.780;17.194;2023-11-21T03:21:07;10.30;99.90
34877;DHT22;21086;44.780;17.194;2023-11-21T03:23:37;10.40;99.90
34877;DHT22;21086;44.780;17.194;2023-11-21T03:26:04;10.40;99.90
34877;DHT22;21086;44.780;17.194;2023-11-21T03:28:32;10.40;99.90
34877;DHT22;21086;44.780;17.194;2023-11-21T03:30:59;10.30;99.90
34877;DHT22;21086;44.780;17.194;2023-11-21T03:33:26;10.30;99.90
34877;DHT22;21086;44.780;17.194;2023-11-21T03:35:53;10.30;99.90
34877;DHT22;21086;44.780;17.194;2023-11-21T03:38:21;10.30;99.90
34877;DHT22;21086;44.780;17.194;2023-11-21T03:40:48;10.30;99.90
34877;DHT22;21086;44.780;17.194;2023-11-21T03:43:15;10.40;99.90
34877;DHT22;21086;44.780;17.194;2023-11-21T03:45:42;10.30;99.90
34877;DHT22;21086;44.780;17.194;2023-11-21T03:48:12;10.40;99.90
34877;DHT22;21086;44.780;17.194;2023-11-21T03:50:39;10.30;99.90
34877;DHT22;21086;44.780;17.194;2023-11-21T03:53:06;10.40;99.90
34877;DHT22;21086;44.780;17.194;2023-11-21T03:55:33;10.20;99.90
34877;DHT22;21086;44.780;17.194;2023-11-21T03:58:00;10.20;99.90
34877;DHT22;21086;44.780;17.194;2023-11-21T04:00:28;10.20;99.90
34877;DHT22;21086;44.780;17.194;2023-11-21T04:02:55;10.20;99.90
34877;DHT22;21086;44.780;17.194;2023-11-21T04:05:22;10.20;99.90
34877;DHT22;21086;44.780;17.194;2023-11-21T04:07:50;10.20;99.90
34877;DHT22;21086;44.780;17.194;2023-11-21T04:10:18;10.10;99.90
34877;DHT22;21086;44.780;17.194;2023-11-21T04:12:45;10.20;99.90
34877;DHT22;21086;44.780;17.194;2023-11-21T04:15:12;10.20;99.90
34877;DHT22;21086;44.780;17.194;2023-11-21T04:17:41;10.20;99.90
34877;DHT22;21086;44.780;17.194;2023-11-21T04:20:08;10.20;99.90
34877;DHT22;21086;44.780;17.194;2023-11-21T04:22:41;10.20;99.90
34877;DHT22;21086;44.780;17.194;2023-11-21T04:25:09;10.20;99.90
34877;DHT22;21086;44.780;17.194;2023-11-21T04:27:39;10.20;99.90
34877;DHT22;21086;44.780;17.194;2023-11-21T04:30:07;10.30;99.90
34877;DHT22;21086;44.780;17.194;2023-11-21T04:32:34;10.30;99.90
34877;DHT22;21086;44.780;17.194;2023-11-21T04:35:01;10.40;99.90
34877;DHT22;21086;44.780;17.194;2023-11-21T04:37:28;10.40;99.90
34877;DHT22;21086;44.780;17.194;2023-11-21T04:39:55;10.40;99.90
34877;DHT22;21086;44.780;17.194;2023-11-21T04:42:22;10.40;99.90
34877;DHT22;21086;44.780;17.194;2023-11-21T04:44:49;10.40;99.90
34877;DHT22;21086;44.780;17.194;2023-11-21T04:47:16;10.50;99.90
34877;DHT22;21086;44.780;17.194;2023-11-21T04:49:46;10.50;99.90
34877;DHT22;21086;44.780;17.194;2023-11-21T04:52:16;10.40;99.90
34877;DHT22;21086;44.780;17.194;2023-11-21T04:54:43;10.40;99.90
34877;DHT22;21086;44.780;17.194;2023-11-21T04:57:10;10.30;99.90
34877;DHT22;21086;44.780;17.194;2023-11-21T04:59:37;10.40;99.90
34877;DHT22;21086;44.780;17.194;2023-11-21T05:02:04;10.30;99.90
34877;DHT22;21086;44.780;17.194;2023-11-21T05:04:32;10.30;99.90
34877;DHT22;21086;44.780;17.194;2023-11-21T05:06:59;10.40;99.90
34877;DHT22;21086;44.780;17.194;2023-11-21T05:09:27;10.40;99.90
34877;DHT22;21086;44.780;17.194;2023-11-21T05:11:58;10.40;99.90
34877;DHT22;21086;44.780;17.194;2023-11-21T05:14:26;10.40;99.90
34877;DHT22;21086;44.780;17.194;2023-11-21T05:16:54;10.40;99.90
34877;DHT22;21086;44.780;17.194;2023-11-21T05:19:21;10.40;99.90
34877;DHT22;21086;44.780;17.194;2023-11-21T05:21:48;10.40;99.90
34877;DHT22;21086;44.780;17.194;2023-11-21T05:24:15;10.40;99.90
34877;DHT22;21086;44.780;17.194;2023-11-21T05:26:42;10.40;99.90
34877;DHT22;21086;44.780;17.194;2023-11-21T05:29:09;10.40;99.90
34877;DHT22;21086;44.780;17.194;2023-11-21T05:31:37;10.40;99.90
34877;DHT22;21086;44.780;17.194;2023-11-21T05:34:04;10.40;99.90
34877;DHT22;21086;44.780;17.194;2023-11-21T05:36:34;10.40;99.90
34877;DHT22;21086;44.780;17.194;2023-11-21T05:39:01;10.40;99.90
34877;DHT22;21086;44.780;17.194;2023-11-21T05:41:30;10.40;99.90
34877;DHT22;21086;44.780;17.194;2023-11-21T05:43:57;10.40;99.90
34877;DHT22;21086;44.780;17.194;2023-11-21T05:46:24;10.40;99.90
34877;DHT22;21086;44.780;17.194;2023-11-21T05:48:51;10.50;99.90
34877;DHT22;21086;44.780;17.194;2023-11-21T05:51:18;10.50;99.90
34877;DHT22;21086;44.780;17.194;2023-11-21T05:53:45;10.40;99.90
34877;DHT22;21086;44.780;17.194;2023-11-21T05:56:13;10.40;99.90
34877;DHT22;21086;44.780;17.194;2023-11-21T05:58:40;10.40;99.90
34877;DHT22;21086;44.780;17.194;2023-11-21T06:01:07;10.40;99.90
34877;DHT22;21086;44.780;17.194;2023-11-21T06:03:35;10.40;99.90
34877;DHT22;21086;44.780;17.194;2023-11-21T06:06:04;10.50;99.90
34877;DHT22;21086;44.780;17.194;2023-11-21T06:08:31;10.50;99.90
34877;DHT22;21086;44.780;17.194;2023-11-21T06:10:58;10.50;99.90
34877;DHT22;21086;44.780;17.194;2023-11-21T06:13:25;10.50;99.90
34877;DHT22;21086;44.780;17.194;2023-11-21T06:15:52;10.50;99.90
34877;DHT22;21086;44.780;17.194;2023-11-21T06:18:19;10.50;99.90
34877;DHT22;21086;44.780;17.194;2023-11-21T06:20:46;10.50;99.90
34877;DHT22;21086;44.780;17.194;2023-11-21T06:23:13;10.50;99.90
34877;DHT22;21086;44.780;17.194;2023-11-21T06:25:40;10.60;99.90
34877;DHT22;21086;44.780;17.194;2023-11-21T06:28:08;10.60;99.90
34877;DHT22;21086;44.780;17.194;2023-11-21T06:30:35;10.60;99.90
34877;DHT22;21086;44.780;17.194;2023-11-21T06:33:02;10.60;99.90
34877;DHT22;21086;44.780;17.194;2023-11-21T06:35:29;10.60;99.90
34877;DHT22;21086;44.780;17.194;2023-11-21T06:37:59;10.60;99.90
34877;DHT22;21086;44.780;17.194;2023-11-21T06:40:26;10.60;99.90
34877;DHT22;21086;44.780;17.194;2023-11-21T06:42:53;10.70;99.90
34877;DHT22;21086;44.780;17.194;2023-11-21T06:45:20;10.70;99.90
34877;DHT22;21086;44.780;17.194;2023-11-21T06:47:48;10.70;99.90
34877;DHT22;21086;44.780;17.194;2023-11-21T06:50:16;10.60;99.90
34877;DHT22;21086;44.780;17.194;2023-11-21T06:52:43;10.60;99.90
34877;DHT22;21086;44.780;17.194;2023-11-21T06:55:10;10.60;99.90
34877;DHT22;21086;44.780;17.194;2023-11-21T06:57:37;10.60;99.90
34877;DHT22;21086;44.780;17.194;2023-11-21T07:00:05;10.40;99.90
34877;DHT22;21086;44.780;17.194;2023-11-21T07:02:36;10.30;99.90
34877;DHT22;21086;44.780;17.194;2023-11-21T07:05:03;10.50;99.90
34877;DHT22;21086;44.780;17.194;2023-11-21T07:07:30;10.50;99.90
34877;DHT22;21086;44.780;17.194;2023-11-21T07:09:57;10.60;99.90
34877;DHT22;21086;44.780;17.194;2023-11-21T07:12:24;10.60;99.90
34877;DHT22;21086;44.780;17.194;2023-11-21T07:14:52;10.60;99.90
34877;DHT22;21086;44.780;17.194;2023-11-21T07:17:20;10.60;99.90
34877;DHT22;21086;44.780;17.194;2023-11-21T07:19:47;10.60;99.90
34877;DHT22;21086;44.780;17.194;2023-11-21T07:22:14;10.50;99.90
34877;DHT22;21086;44.780;17.194;2023-11-21T07:24:43;10.40;99.90
34877;DHT22;21086;44.780;17.194;2023-11-21T07:27:10;10.20;99.90
34877;DHT22;21086;44.780;17.194;2023-11-21T07:29:37;10.30;99.90
34877;DHT22;21086;44.780;17.194;2023-11-21T07:32:04;10.40;99.90
34877;DHT22;21086;44.780;17.194;2023-11-21T07:34:32;10.50;99.90
34877;DHT22;21086;44.780;17.194;2023-11-21T07:36:59;10.60;99.90
34877;DHT22;21086;44.780;17.194;2023-11-21T07:39:28;10.60;99.90
34877;DHT22;21086;44.780;17.194;2023-11-21T07:41:56;10.60;99.90
34877;DHT22;21086;44.780;17.194;2023-11-21T07:44:24;10.60;99.90
34877;DHT22;21086;44.780;17.194;2023-11-21T07:46:51;10.60;99.90
34877;DHT22;21086;44.780;17.194;2023-11-21T07:49:18;10.60;99.90
34877;DHT22;21086;44.780;17.194;2023-11-21T07:51:47;10.60;99.90
34877;DHT22;21086;44.780;17.194;2023-11-21T07:54:15;10.70;99.90
34877;DHT22;21086;44.780;17.194;2023-11-21T07:56:42;10.80;99.90
34877;DHT22;21086;44.780;17.194;2023-11-21T07:59:09;10.80;99.90
34877;DHT22;21086;44.780;17.194;2023-11-21T08:01:36;10.80;99.90
34877;DHT22;21086;44.780;17.194;2023-11-21T08:04:03;10.80;99.90
34877;DHT22;21086;44.780;17.194;2023-11-21T08:06:31;10.80;99.90
34877;DHT22;21086;44.780;17.194;2023-11-21T08:08:59;10.90;99.90
34877;DHT22;21086;44.780;17.194;2023-11-21T08:11:26;10.90;99.90
34877;DHT22;21086;44.780;17.194;2023-11-21T08:13:56;10.90;99.90
34877;DHT22;21086;44.780;17.194;2023-11-21T08:16:23;10.90;99.90
34877;DHT22;21086;44.780;17.194;2023-11-21T08:18:51;10.90;99.90
34877;DHT22;21086;44.780;17.194;2023-11-21T08:21:18;10.90;99.90
34877;DHT22;21086;44.780;17.194;2023-11-21T08:23:46;10.90;99.90
34877;DHT22;21086;44.780;17.194;2023-11-21T08:26:16;10.80;99.90
34877;DHT22;21086;44.780;17.194;2023-11-21T08:28:45;10.80;99.90
34877;DHT22;21086;44.780;17.194;2023-11-21T08:31:12;10.90;99.90
34877;DHT22;21086;44.780;17.194;2023-11-21T08:33:41;10.80;99.90
34877;DHT22;21086;44.780;17.194;2023-11-21T08:36:09;10.80;99.90
34877;DHT22;21086;44.780;17.194;2023-11-21T08:38:37;10.90;99.90
34877;DHT22;21086;44.780;17.194;2023-11-21T08:41:06;10.90;99.90
34877;DHT22;21086;44.780;17.194;2023-11-21T08:43:37;10.90;99.90
34877;DHT22;21086;44.780;17.194;2023-11-21T08:46:07;10.90;99.90
34877;DHT22;21086;44.780;17.194;2023-11-21T08:48:36;10.90;99.90
34877;DHT22;21086;44.780;17.194;2023-11-21T08:51:04;10.90;99.90
34877;DHT22;21086;44.780;17.194;2023-11-21T08:53:31;11.00;99.90
34877;DHT22;21086;44.780;17.194;2023-11-21T08:55:58;11.10;99.90
34877;DHT22;21086;44.780;17.194;2023-11-21T08:58:25;11.10;99.90
34877;DHT22;21086;44.780;17.194;2023-11-21T09:00:52;11.10;99.90
34877;DHT22;21086;44.780;17.194;2023-11-21T09:03:19;11.10;99.90
34877;DHT22;21086;44.780;17.194;2023-11-21T09:05:47;11.00;99.90
34877;DHT22;21086;44.780;17.194;2023-11-21T09:08:14;11.00;99.90
34877;DHT22;21086;44.780;17.194;2023-11-21T09:10:41;11.00;99.90
34877;DHT22;21086;44.780;17.194;2023-11-21T09:13:10;11.00;99.90
34877;DHT22;21086;44.780;17.194;2023-11-21T09:15:37;11.00;99.90
34877;DHT22;21086;44.780;17.194;2023-11-21T09:18:04;11.00;99.90
34877;DHT22;21086;44.780;17.194;2023-11-21T09:20:32;11.10;99.90
34877;DHT22;21086;44.780;17.194;2023-11-21T09:22:59;11.00;99.90
34877;DHT22;21086;44.780;17.194;2023-11-21T09:25:26;11.00;99.90
34877;DHT22;21086;44.780;17.194;2023-11-21T09:27:55;11.00;99.90
34877;DHT22;21086;44.780;17.194;2023-11-21T09:30:24;11.00;99.90
34877;DHT22;21086;44.780;17.194;2023-11-21T09:32:51;11.00;99.90
34877;DHT22;21086;44.780;17.194;2023-11-21T09:35:18;11.00;99.90
34877;DHT22;21086;44.780;17.194;2023-11-21T09:37:45;11.00;99.90
34877;DHT22;21086;44.780;17.194;2023-11-21T09:40:21;11.10;99.90
34877;DHT22;21086;44.780;17.194;2023-11-21T09:42:55;11.10;99.90
34877;DHT22;21086;44.780;17.194;2023-11-21T09:45:36;11.10;99.90
34877;DHT22;21086;44.780;17.194;2023-11-21T09:48:05;11.10;99.90
34877;DHT22;21086;44.780;17.194;2023-11-21T09:50:33;11.00;99.90
34877;DHT22;21086;44.780;17.194;2023-11-21T09:53:21;11.10;99.90
34877;DHT22;21086;44.780;17.194;2023-11-21T09:55:54;11.10;99.90
34877;DHT22;21086;44.780;17.194;2023-11-21T09:58:22;11.10;99.90
34877;DHT22;21086;44.780;17.194;2023-11-21T10:00:53;11.10;99.90
34877;DHT22;21086;44.780;17.194;2023-11-21T10:03:20;11.10;99.90
34877;DHT22;21086;44.780;17.194;2023-11-21T10:05:50;11.00;99.90
34877;DHT22;21086;44.780;17.194;2023-11-21T10:08:18;11.00;99.90
34877;DHT22;21086;44.780;17.194;2023-11-21T10:10:49;11.10;99.90
34877;DHT22;21086;44.780;17.194;2023-11-21T10:13:18;11.10;99.90
34877;DHT22;21086;44.780;17.194;2023-11-21T10:15:50;11.00;99.90
34877;DHT22;21086;44.780;17.194;2023-11-21T10:18:18;11.00;99.90
34877;DHT22;21086;44.780;17.194;2023-11-21T10:20:45;11.00;99.90
34877;DHT22;21086;44.780;17.194;2023-11-21T10:23:21;11.00;99.90
34877;DHT22;21086;44.780;17.194;2023-11-21T10:25:51;11.00;99.90
34877;DHT22;21086;44.780;17.194;2023-11-21T10:28:19;11.00;99.90
34877;DHT22;21086;44.780;17.194;2023-11-21T10:30:48;11.00;99.90
34877;DHT22;21086;44.780;17.194;2023-11-21T10:33:15;10.90;99.90
34877;DHT22;21086;44.780;17.194;2023-11-21T10:35:45;10.90;99.90
34877;DHT22;21086;44.780;17.194;2023-11-21T10:38:14;11.00;99.90
34877;DHT22;21086;44.780;17.194;2023-11-21T10:40:41;11.00;99.90
34877;DHT22;21086;44.780;17.194;2023-11-21T10:43:09;11.00;99.90
34877;DHT22;21086;44.780;17.194;2023-11-21T10:45:37;11.00;99.90
34877;DHT22;21086;44.780;17.194;2023-11-21T10:48:14;11.00;99.90
34877;DHT22;21086;44.780;17.194;2023-11-21T10:50:46;11.00;99.90
34877;DHT22;21086;44.780;17.194;2023-11-21T10:53:28;11.00;99.90
34877;DHT22;21086;44.780;17.194;2023-11-21T10:56:05;11.00;99.90
34877;DHT22;21086;44.780;17.194;2023-11-21T10:58:38;11.00;99.90
34877;DHT22;21086;44.780;17.194;2023-11-21T11:01:06;11.10;99.90
34877;DHT22;21086;44.780;17.194;2023-11-21T11:03:35;11.10;99.90
34877;DHT22;21086;44.780;17.194;2023-11-21T11:06:05;11.10;99.90
34877;DHT22;21086;44.780;17.194;2023-11-21T11:08:35;11.00;99.90
34877;DHT22;21086;44.780;17.194;2023-11-21T11:11:02;11.10;99.90
34877;DHT22;21086;44.780;17.194;2023-11-21T11:13:30;11.10;99.90
34877;DHT22;21086;44.780;17.194;2023-11-21T11:16:01;11.10;99.90
34877;DHT22;21086;44.780;17.194;2023-11-21T11:18:29;11.10;99.90
34877;DHT22;21086;44.780;17.194;2023-11-21T11:21:28;11.10;99.90
34877;DHT22;21086;44.780;17.194;2023-11-21T11:27:06;11.10;99.90
34877;DHT22;21086;44.780;17.194;2023-11-21T11:29:56;11.10;99.90
34877;DHT22;21086;44.780;17.194;2023-11-21T11:38:09;11.00;99.90
34877;DHT22;21086;44.780;17.194;2023-11-21T11:40:55;11.10;99.90
34877;DHT22;21086;44.780;17.194;2023-11-21T11:43:26;11.20;99.90
34877;DHT22;21086;44.780;17.194;2023-11-21T11:45:57;11.20;99.90
34877;DHT22;21086;44.780;17.194;2023-11-21T11:48:30;11.20;99.90
34877;DHT22;21086;44.780;17.194;2023-11-21T11:51:15;11.30;99.90
34877;DHT22;21086;44.780;17.194;2023-11-21T11:53:47;11.30;99.90
34877;DHT22;21086;44.780;17.194;2023-11-21T11:56:27;11.30;99.90
34877;DHT22;21086;44.780;17.194;2023-11-21T11:58:57;11.30;99.90
34877;DHT22;21086;44.780;17.194;2023-11-21T12:01:26;11.30;99.90
34877;DHT22;21086;44.780;17.194;2023-11-21T12:06:42;11.10;99.90
34877;DHT22;21086;44.780;17.194;2023-11-21T12:09:22;11.00;99.90
34877;DHT22;21086;44.780;17.194;2023-11-21T12:11:51;11.10;99.90
34877;DHT22;21086;44.780;17.194;2023-11-21T12:14:18;11.00;99.90
34877;DHT22;21086;44.780;17.194;2023-11-21T12:16:45;10.90;99.90
34877;DHT22;21086;44.780;17.194;2023-11-21T12:19:12;10.90;99.90
34877;DHT22;21086;44.780;17.194;2023-11-21T12:21:41;10.90;99.90
34877;DHT22;21086;44.780;17.194;2023-11-21T12:24:08;10.90;99.90
34877;DHT22;21086;44.780;17.194;2023-11-21T12:26:36;10.80;99.90
34877;DHT22;21086;44.780;17.194;2023-11-21T12:29:03;10.80;99.90
34877;DHT22;21086;44.780;17.194;2023-11-21T12:31:31;10.70;99.90
34877;DHT22;21086;44.780;17.194;2023-11-21T12:33:58;10.70;99.90
34877;DHT22;21086;44.780;17.194;2023-11-21T12:36:26;10.80;99.90
34877;DHT22;21086;44.780;17.194;2023-11-21T12:38:53;10.80;99.90
34877;DHT22;21086;44.780;17.194;2023-11-21T12:41:20;10.80;99.90
34877;DHT22;21086;44.780;17.194;2023-11-21T12:43:48;10.90;99.90
34877;DHT22;21086;44.780;17.194;2023-11-21T12:46:16;10.80;99.90
34877;DHT22;21086;44.780;17.194;2023-11-21T12:48:44;10.80;99.90
34877;DHT22;21086;44.780;17.194;2023-11-21T12:51:15;10.80;99.90
34877;DHT22;21086;44.780;17.194;2023-11-21T12:53:44;10.90;99.90
34877;DHT22;21086;44.780;17.194;2023-11-21T12:56:12;10.80;99.90
34877;DHT22;21086;44.780;17.194;2023-11-21T12:58:45;10.80;99.90
34877;DHT22;21086;44.780;17.194;2023-11-21T13:01:14;10.80;99.90
34877;DHT22;21086;44.780;17.194;2023-11-21T13:03:49;10.90;99.90
34877;DHT22;21086;44.780;17.194;2023-11-21T13:06:18;10.90;99.90
34877;DHT22;21086;44.780;17.194;2023-11-21T13:08:46;11.00;99.90
34877;DHT22;21086;44.780;17.194;2023-11-21T13:11:13;10.90;99.90
34877;DHT22;21086;44.780;17.194;2023-11-21T13:13:42;11.00;99.90
34877;DHT22;21086;44.780;17.194;2023-11-21T13:16:10;10.90;99.90
34877;DHT22;21086;44.780;17.194;2023-11-21T13:18:37;11.00;99.90
34877;DHT22;21086;44.780;17.194;2023-11-21T13:21:09;11.00;99.90
34877;DHT22;21086;44.780;17.194;2023-11-21T13:23:43;11.00;99.90
34877;DHT22;21086;44.780;17.194;2023-11-21T13:26:12;10.90;99.90
34877;DHT22;21086;44.780;17.194;2023-11-21T13:28:41;10.90;99.90
34877;DHT22;21086;44.780;17.194;2023-11-21T13:31:13;11.00;99.90
34877;DHT22;21086;44.780;17.194;2023-11-21T13:33:53;11.00;99.90
34877;DHT22;21086;44.780;17.194;2023-11-21T13:36:26;11.00;99.90
34877;DHT22;21086;44.780;17.194;2023-11-21T13:38:57;10.90;99.90
34877;DHT22;21086;44.780;17.194;2023-11-21T13:41:25;10.90;99.90
34877;DHT22;21086;44.780;17.194;2023-11-21T13:43:58;10.90;99.90
34877;DHT22;21086;44.780;17.194;2023-11-21T13:46:43;10.90;99.90
34877;DHT22;21086;44.780;17.194;2023-11-21T13:49:13;11.00;99.90
34877;DHT22;21086;44.780;17.194;2023-11-21T13:51:42;10.90;99.90
34877;DHT22;21086;44.780;17.194;2023-11-21T13:54:15;10.90;99.90
34877;DHT22;21086;44.780;17.194;2023-11-21T13:56:42;10.90;99.90
34877;DHT22;21086;44.780;17.194;2023-11-21T13:59:12;10.90;99.90
34877;DHT22;21086;44.780;17.194;2023-11-21T14:01:52;10.90;99.90
34877;DHT22;21086;44.780;17.194;2023-11-21T14:04:27;10.90;99.90
34877;DHT22;21086;44.780;17.194;2023-11-21T14:06:57;10.90;99.90
34877;DHT22;21086;44.780;17.194;2023-11-21T14:09:28;10.90;99.90
34877;DHT22;21086;44.780;17.194;2023-11-21T14:12:00;10.80;99.90
34877;DHT22;21086;44.780;17.194;2023-11-21T14:14:29;10.80;99.90
34877;DHT22;21086;44.780;17.194;2023-11-21T14:16:56;10.80;99.90
34877;DHT22;21086;44.780;17.194;2023-11-21T14:19:25;10.70;99.90
34877;DHT22;21086;44.780;17.194;2023-11-21T14:21:59;10.70;99.90
34877;DHT22;21086;44.780;17.194;2023-11-21T14:24:27;10.70;99.90
34877;DHT22;21086;44.780;17.194;2023-11-21T14:26:56;10.70;99.90
34877;DHT22;21086;44.780;17.194;2023-11-21T14:29:23;10.70;99.90
34877;DHT22;21086;44.780;17.194;2023-11-21T14:31:51;10.70;99.90
34877;DHT22;21086;44.780;17.194;2023-11-21T14:34:20;10.60;99.90
34877;DHT22;21086;44.780;17.194;2023-11-21T14:36:50;10.60;99.90
34877;DHT22;21086;44.780;17.194;2023-11-21T14:39:17;10.60;99.90
34877;DHT22;21086;44.780;17.194;2023-11-21T14:41:51;10.60;99.90
34877;DHT22;21086;44.780;17.194;2023-11-21T14:44:20;10.60;99.90
34877;DHT22;21086;44.780;17.194;2023-11-21T14:46:50;10.50;99.90
34877;DHT22;21086;44.780;17.194;2023-11-21T14:49:18;10.50;99.90
34877;DHT22;21086;44.780;17.194;2023-11-21T14:51:47;10.40;99.90
34877;DHT22;21086;44.780;17.194;2023-11-21T14:54:31;10.40;99.90
34877;DHT22;21086;44.780;17.194;2023-11-21T14:57:04;10.40;99.90
34877;DHT22;21086;44.780;17.194;2023-11-21T14:59:36;10.40;99.90
34877;DHT22;21086;44.780;17.194;2023-11-21T15:02:03;10.40;99.90
34877;DHT22;21086;44.780;17.194;2023-11-21T15:04:43;10.40;99.90
34877;DHT22;21086;44.780;17.194;2023-11-21T15:07:10;10.40;99.90
34877;DHT22;21086;44.780;17.194;2023-11-21T15:09:40;10.40;99.90
34877;DHT22;21086;44.780;17.194;2023-11-21T15:12:12;10.40;99.90
34877;DHT22;21086;44.780;17.194;2023-11-21T15:14:49;10.40;99.90
34877;DHT22;21086;44.780;17.194;2023-11-21T15:17:20;10.30;99.90
34877;DHT22;21086;44.780;17.194;2023-11-21T15:19:55;10.30;99.90
34877;DHT22;21086;44.780;17.194;2023-11-21T15:22:22;10.30;99.90
34877;DHT22;21086;44.780;17.194;2023-11-21T15:24:49;10.20;99.90
34877;DHT22;21086;44.780;17.194;2023-11-21T15:27:17;10.20;99.90
34877;DHT22;21086;44.780;17.194;2023-11-21T15:29:45;10.30;99.90
34877;DHT22;21086;44.780;17.194;2023-11-21T15:32:12;10.20;99.90
34877;DHT22;21086;44.780;17.194;2023-11-21T15:34:39;10.20;99.90
34877;DHT22;21086;44.780;17.194;2023-11-21T15:37:08;10.20;99.90
34877;DHT22;21086;44.780;17.194;2023-11-21T15:39:38;10.20;99.90